sensor_id;sensor_type;location;lat;lon;timestamp;P1;durP1;ratioP1;P2;durP2;ratioP2
39454;SDS011;25155;41.890;23.446;2024-03-08T00:00:10;4.40;;;3.00;;
39454;SDS011;25155;41.890;23.446;2024-03-08T00:02:39;5.90;;;3.42;;
39454;SDS011;25155;41.890;23.446;2024-03-08T00:05:06;4.38;;;2.92;;
39454;SDS011;25155;41.890;23.446;2024-03-08T00:07:35;5.35;;;3.30;;
39454;SDS011;25155;41.890;23.446;2024-03-08T00:10:02;5.13;;;3.42;;
39454;SDS011;25155;41.890;23.446;2024-03-08T00:12:30;5.13;;;3.40;;
39454;SDS011;25155;41.890;23.446;2024-03-08T00:14:59;5.78;;;3.83;;
39454;SDS011;25155;41.890;23.446;2024-03-08T00:17:26;5.45;;;3.40;;
39454;SDS011;25155;41.890;23.446;2024-03-08T00:19:53;5.18;;;3.50;;
39454;SDS011;25155;41.890;23.446;2024-03-08T00:22:21;6.55;;;4.43;;
39454;SDS011;25155;41.890;23.446;2024-03-08T00:24:48;5.75;;;4.10;;
39454;SDS011;25155;41.890;23.446;2024-03-08T00:27:16;7.15;;;4.50;;
39454;SDS011;25155;41.890;23.446;2024-03-08T00:29:46;5.82;;;3.75;;
39454;SDS011;25155;41.890;23.446;2024-03-08T00:32:15;6.43;;;4.82;;
39454;SDS011;25155;41.890;23.446;2024-03-08T00:34:42;7.22;;;4.75;;
39454;SDS011;25155;41.890;23.446;2024-03-08T00:37:09;5.93;;;3.88;;
39454;SDS011;25155;41.890;23.446;2024-03-08T00:39:37;6.22;;;4.10;;
39454;SDS011;25155;41.890;23.446;2024-03-08T00:42:04;5.32;;;3.60;;
39454;SDS011;25155;41.890;23.446;2024-03-08T00:44:31;5.18;;;3.47;;
39454;SDS011;25155;41.890;23.446;2024-03-08T00:46:59;4.88;;;3.17;;
39454;SDS011;25155;41.890;23.446;2024-03-08T00:49:27;5.07;;;3.38;;
39454;SDS011;25155;41.890;23.446;2024-03-08T00:51:54;5.10;;;3.40;;
39454;SDS011;25155;41.890;23.446;2024-03-08T00:54:22;5.78;;;3.92;;
39454;SDS011;25155;41.890;23.446;2024-03-08T00:56:49;4.72;;;3.20;;
39454;SDS011;25155;41.890;23.446;2024-03-08T00:59:16;5.10;;;3.53;;
39454;SDS011;25155;41.890;23.446;2024-03-08T01:01:43;5.97;;;4.00;;
39454;SDS011;25155;41.890;23.446;2024-03-08T01:04:11;7.40;;;4.80;;
39454;SDS011;25155;41.890;23.446;2024-03-08T01:06:39;7.45;;;4.80;;
39454;SDS011;25155;41.890;23.446;2024-03-08T01:09:08;5.70;;;3.88;;
39454;SDS011;25155;41.890;23.446;2024-03-08T01:11:36;5.47;;;3.50;;
39454;SDS011;25155;41.890;23.446;2024-03-08T01:14:03;4.63;;;3.10;;
39454;SDS011;25155;41.890;23.446;2024-03-08T01:16:30;3.65;;;2.38;;
39454;SDS011;25155;41.890;23.446;2024-03-08T01:18:58;4.10;;;2.58;;
39454;SDS011;25155;41.890;23.446;2024-03-08T01:21:26;4.28;;;2.58;;
39454;SDS011;25155;41.890;23.446;2024-03-08T01:23:55;5.43;;;3.63;;
39454;SDS011;25155;41.890;23.446;2024-03-08T01:26:22;5.15;;;3.58;;
39454;SDS011;25155;41.890;23.446;2024-03-08T01:28:49;6.70;;;4.40;;
39454;SDS011;25155;41.890;23.446;2024-03-08T01:31:16;5.95;;;3.80;;
39454;SDS011;25155;41.890;23.446;2024-03-08T01:33:44;4.70;;;3.22;;
39454;SDS011;25155;41.890;23.446;2024-03-08T01:36:11;5.57;;;3.83;;
39454;SDS011;25155;41.890;23.446;2024-03-08T01:38:40;6.10;;;3.30;;
39454;SDS011;25155;41.890;23.446;2024-03-08T01:41:10;5.30;;;2.90;;
39454;SDS011;25155;41.890;23.446;2024-03-08T01:43:40;5.22;;;3.08;;
39454;SDS011;25155;41.890;23.446;2024-03-08T01:46:07;4.85;;;3.00;;
39454;SDS011;25155;41.890;23.446;2024-03-08T01:48:38;4.93;;;2.60;;
39454;SDS011;25155;41.890;23.446;2024-03-08T01:51:06;3.90;;;2.70;;
39454;SDS011;25155;41.890;23.446;2024-03-08T01:53:34;4.90;;;2.90;;
39454;SDS011;25155;41.890;23.446;2024-03-08T01:56:02;4.68;;;2.85;;
39454;SDS011;25155;41.890;23.446;2024-03-08T01:58:31;4.05;;;2.60;;
39454;SDS011;25155;41.890;23.446;2024-03-08T02:01:00;5.10;;;3.00;;
39454;SDS011;25155;41.890;23.446;2024-03-08T02:03:29;5.10;;;3.10;;
39454;SDS011;25155;41.890;23.446;2024-03-08T02:05:57;4.18;;;2.65;;
39454;SDS011;25155;41.890;23.446;2024-03-08T02:08:25;3.80;;;2.45;;
39454;SDS011;25155;41.890;23.446;2024-03-08T02:10:52;4.15;;;2.58;;
39454;SDS011;25155;41.890;23.446;2024-03-08T02:13:19;5.32;;;3.50;;
39454;SDS011;25155;41.890;23.446;2024-03-08T02:15:52;5.38;;;3.50;;
39454;SDS011;25155;41.890;23.446;2024-03-08T02:18:20;5.00;;;3.22;;
39454;SDS011;25155;41.890;23.446;2024-03-08T02:20:50;4.43;;;2.72;;
39454;SDS011;25155;41.890;23.446;2024-03-08T02:23:18;4.53;;;2.85;;
39454;SDS011;25155;41.890;23.446;2024-03-08T02:25:46;5.35;;;3.15;;
39454;SDS011;25155;41.890;23.446;2024-03-08T02:28:14;6.32;;;3.25;;
39454;SDS011;25155;41.890;23.446;2024-03-08T02:30:44;4.68;;;3.05;;
39454;SDS011;25155;41.890;23.446;2024-03-08T02:33:14;6.45;;;3.22;;
39454;SDS011;25155;41.890;23.446;2024-03-08T02:35:43;6.03;;;4.10;;
39454;SDS011;25155;41.890;23.446;2024-03-08T02:38:14;5.53;;;3.40;;
39454;SDS011;25155;41.890;23.446;2024-03-08T02:40:42;5.70;;;3.27;;
39454;SDS011;25155;41.890;23.446;2024-03-08T02:43:10;4.85;;;2.75;;
39454;SDS011;25155;41.890;23.446;2024-03-08T02:45:37;4.68;;;3.00;;
39454;SDS011;25155;41.890;23.446;2024-03-08T02:48:05;6.93;;;4.40;;
39454;SDS011;25155;41.890;23.446;2024-03-08T02:50:33;5.78;;;3.60;;
39454;SDS011;25155;41.890;23.446;2024-03-08T02:53:01;6.65;;;4.18;;
39454;SDS011;25155;41.890;23.446;2024-03-08T02:55:32;5.40;;;3.67;;
39454;SDS011;25155;41.890;23.446;2024-03-08T02:58:01;5.70;;;4.10;;
39454;SDS011;25155;41.890;23.446;2024-03-08T03:00:30;6.00;;;4.20;;
39454;SDS011;25155;41.890;23.446;2024-03-08T03:02:58;6.28;;;4.18;;
39454;SDS011;25155;41.890;23.446;2024-03-08T03:05:25;5.50;;;3.83;;
39454;SDS011;25155;41.890;23.446;2024-03-08T03:07:52;5.45;;;3.45;;
39454;SDS011;25155;41.890;23.446;2024-03-08T03:10:19;5.32;;;3.30;;
39454;SDS011;25155;41.890;23.446;2024-03-08T03:12:48;5.03;;;3.08;;
39454;SDS011;25155;41.890;23.446;2024-03-08T03:15:15;3.95;;;2.70;;
39454;SDS011;25155;41.890;23.446;2024-03-08T03:17:45;4.50;;;2.90;;
39454;SDS011;25155;41.890;23.446;2024-03-08T03:20:13;3.60;;;2.47;;
39454;SDS011;25155;41.890;23.446;2024-03-08T03:22:48;3.45;;;2.30;;
39454;SDS011;25155;41.890;23.446;2024-03-08T03:25:18;4.03;;;2.50;;
39454;SDS011;25155;41.890;23.446;2024-03-08T03:27:52;4.28;;;2.60;;
39454;SDS011;25155;41.890;23.446;2024-03-08T03:30:21;3.72;;;2.42;;
39454;SDS011;25155;41.890;23.446;2024-03-08T03:32:51;4.55;;;2.70;;
39454;SDS011;25155;41.890;23.446;2024-03-08T03:35:20;3.78;;;2.50;;
39454;SDS011;25155;41.890;23.446;2024-03-08T03:37:47;5.07;;;3.20;;
39454;SDS011;25155;41.890;23.446;2024-03-08T03:40:26;7.07;;;4.90;;
39454;SDS011;25155;41.890;23.446;2024-03-08T03:42:55;6.55;;;4.10;;
39454;SDS011;25155;41.890;23.446;2024-03-08T03:45:23;7.38;;;4.90;;
39454;SDS011;25155;41.890;23.446;2024-03-08T03:47:51;5.35;;;3.58;;
39454;SDS011;25155;41.890;23.446;2024-03-08T03:50:18;5.57;;;3.60;;
39454;SDS011;25155;41.890;23.446;2024-03-08T03:52:46;5.65;;;3.70;;
39454;SDS011;25155;41.890;23.446;2024-03-08T03:55:13;4.60;;;3.00;;
39454;SDS011;25155;41.890;23.446;2024-03-08T03:57:40;4.50;;;2.83;;
39454;SDS011;25155;41.890;23.446;2024-03-08T04:00:10;4.45;;;2.80;;
39454;SDS011;25155;41.890;23.446;2024-03-08T04:02:38;4.22;;;2.75;;
39454;SDS011;25155;41.890;23.446;2024-03-08T04:05:07;3.83;;;2.50;;
39454;SDS011;25155;41.890;23.446;2024-03-08T04:07:34;4.28;;;3.00;;
39454;SDS011;25155;41.890;23.446;2024-03-08T04:10:01;4.65;;;2.90;;
39454;SDS011;25155;41.890;23.446;2024-03-08T04:12:29;4.80;;;3.03;;
39454;SDS011;25155;41.890;23.446;2024-03-08T04:14:57;5.05;;;3.30;;
39454;SDS011;25155;41.890;23.446;2024-03-08T04:17:26;4.05;;;2.70;;
39454;SDS011;25155;41.890;23.446;2024-03-08T04:19:53;4.10;;;2.70;;
39454;SDS011;25155;41.890;23.446;2024-03-08T04:22:21;4.40;;;2.80;;
39454;SDS011;25155;41.890;23.446;2024-03-08T04:24:48;4.05;;;2.38;;
39454;SDS011;25155;41.890;23.446;2024-03-08T04:27:16;3.60;;;2.50;;
39454;SDS011;25155;41.890;23.446;2024-03-08T04:29:43;3.92;;;2.50;;
39454;SDS011;25155;41.890;23.446;2024-03-08T04:32:10;5.55;;;3.15;;
39454;SDS011;25155;41.890;23.446;2024-03-08T04:34:41;6.82;;;3.17;;
39454;SDS011;25155;41.890;23.446;2024-03-08T04:37:09;4.80;;;3.10;;
39454;SDS011;25155;41.890;23.446;2024-03-08T04:39:39;5.97;;;3.45;;
39454;SDS011;25155;41.890;23.446;2024-03-08T04:42:07;5.60;;;3.42;;
39454;SDS011;25155;41.890;23.446;2024-03-08T04:44:36;5.90;;;3.65;;
39454;SDS011;25155;41.890;23.446;2024-03-08T04:47:05;6.07;;;3.90;;
39454;SDS011;25155;41.890;23.446;2024-03-08T04:49:32;6.53;;;3.78;;
39454;SDS011;25155;41.890;23.446;2024-03-08T04:52:03;7.97;;;4.15;;
39454;SDS011;25155;41.890;23.446;2024-03-08T04:54:30;7.60;;;4.50;;
39454;SDS011;25155;41.890;23.446;2024-03-08T04:56:58;8.07;;;4.90;;
39454;SDS011;25155;41.890;23.446;2024-03-08T04:59:26;7.07;;;4.72;;
39454;SDS011;25155;41.890;23.446;2024-03-08T05:01:53;7.40;;;4.88;;
39454;SDS011;25155;41.890;23.446;2024-03-08T05:04:21;6.53;;;4.18;;
39454;SDS011;25155;41.890;23.446;2024-03-08T05:06:49;8.05;;;5.63;;
39454;SDS011;25155;41.890;23.446;2024-03-08T05:09:17;7.57;;;4.85;;
39454;SDS011;25155;41.890;23.446;2024-03-08T05:11:45;5.82;;;3.80;;
39454;SDS011;25155;41.890;23.446;2024-03-08T05:14:13;6.85;;;4.10;;
39454;SDS011;25155;41.890;23.446;2024-03-08T05:16:43;4.57;;;2.90;;
39454;SDS011;25155;41.890;23.446;2024-03-08T05:19:14;4.97;;;3.15;;
39454;SDS011;25155;41.890;23.446;2024-03-08T05:21:43;5.28;;;3.40;;
39454;SDS011;25155;41.890;23.446;2024-03-08T05:24:10;10.00;;;6.80;;
39454;SDS011;25155;41.890;23.446;2024-03-08T05:26:41;14.07;;;8.88;;
39454;SDS011;25155;41.890;23.446;2024-03-08T05:29:08;14.02;;;8.77;;
39454;SDS011;25155;41.890;23.446;2024-03-08T05:31:37;26.83;;;18.17;;
39454;SDS011;25155;41.890;23.446;2024-03-08T05:34:09;26.60;;;18.52;;
39454;SDS011;25155;41.890;23.446;2024-03-08T05:36:40;25.98;;;17.55;;
39454;SDS011;25155;41.890;23.446;2024-03-08T05:39:09;44.15;;;31.45;;
39454;SDS011;25155;41.890;23.446;2024-03-08T05:41:37;49.58;;;34.10;;
39454;SDS011;25155;41.890;23.446;2024-03-08T05:44:05;46.00;;;31.70;;
39454;SDS011;25155;41.890;23.446;2024-03-08T05:46:33;37.40;;;24.95;;
39454;SDS011;25155;41.890;23.446;2024-03-08T05:49:01;32.05;;;22.30;;
39454;SDS011;25155;41.890;23.446;2024-03-08T05:51:30;25.48;;;18.67;;
39454;SDS011;25155;41.890;23.446;2024-03-08T05:53:59;29.38;;;20.88;;
39454;SDS011;25155;41.890;23.446;2024-03-08T05:56:28;22.25;;;16.15;;
39454;SDS011;25155;41.890;23.446;2024-03-08T05:58:56;23.50;;;15.40;;
39454;SDS011;25155;41.890;23.446;2024-03-08T06:01:25;16.65;;;12.40;;
39454;SDS011;25155;41.890;23.446;2024-03-08T06:03:52;16.55;;;11.15;;
39454;SDS011;25155;41.890;23.446;2024-03-08T06:06:21;17.00;;;11.02;;
39454;SDS011;25155;41.890;23.446;2024-03-08T06:08:48;23.63;;;15.70;;
39454;SDS011;25155;41.890;23.446;2024-03-08T06:11:16;33.92;;;21.40;;
39454;SDS011;25155;41.890;23.446;2024-03-08T06:13:44;32.80;;;22.85;;
39454;SDS011;25155;41.890;23.446;2024-03-08T06:16:11;27.17;;;18.67;;
39454;SDS011;25155;41.890;23.446;2024-03-08T06:18:39;27.33;;;17.83;;
39454;SDS011;25155;41.890;23.446;2024-03-08T06:21:07;23.45;;;15.02;;
39454;SDS011;25155;41.890;23.446;2024-03-08T06:23:36;26.20;;;18.48;;
39454;SDS011;25155;41.890;23.446;2024-03-08T06:26:04;22.90;;;15.98;;
39454;SDS011;25155;41.890;23.446;2024-03-08T06:28:31;21.85;;;15.73;;
39454;SDS011;25155;41.890;23.446;2024-03-08T06:31:00;19.48;;;14.32;;
39454;SDS011;25155;41.890;23.446;2024-03-08T06:33:27;20.33;;;14.70;;
39454;SDS011;25155;41.890;23.446;2024-03-08T06:35:57;23.98;;;15.20;;
39454;SDS011;25155;41.890;23.446;2024-03-08T06:38:24;24.95;;;17.92;;
39454;SDS011;25155;41.890;23.446;2024-03-08T06:40:51;26.10;;;18.02;;
39454;SDS011;25155;41.890;23.446;2024-03-08T06:43:20;23.60;;;16.98;;
39454;SDS011;25155;41.890;23.446;2024-03-08T06:45:47;20.92;;;14.90;;
39454;SDS011;25155;41.890;23.446;2024-03-08T06:48:14;19.48;;;13.57;;
39454;SDS011;25155;41.890;23.446;2024-03-08T06:50:42;25.60;;;17.85;;
39454;SDS011;25155;41.890;23.446;2024-03-08T06:53:11;23.67;;;16.27;;
39454;SDS011;25155;41.890;23.446;2024-03-08T06:55:39;21.70;;;15.93;;
39454;SDS011;25155;41.890;23.446;2024-03-08T06:58:07;27.30;;;19.40;;
39454;SDS011;25155;41.890;23.446;2024-03-08T07:00:35;29.13;;;21.50;;
39454;SDS011;25155;41.890;23.446;2024-03-08T07:03:03;22.02;;;15.75;;
39454;SDS011;25155;41.890;23.446;2024-03-08T07:05:37;20.42;;;14.60;;
39454;SDS011;25155;41.890;23.446;2024-03-08T07:08:06;17.05;;;12.25;;
39454;SDS011;25155;41.890;23.446;2024-03-08T07:10:34;14.23;;;10.07;;
39454;SDS011;25155;41.890;23.446;2024-03-08T07:13:02;13.38;;;8.43;;
39454;SDS011;25155;41.890;23.446;2024-03-08T07:15:30;13.63;;;9.45;;
39454;SDS011;25155;41.890;23.446;2024-03-08T07:17:58;11.13;;;7.85;;
39454;SDS011;25155;41.890;23.446;2024-03-08T07:20:25;8.90;;;6.45;;
39454;SDS011;25155;41.890;23.446;2024-03-08T07:22:54;11.38;;;8.40;;
39454;SDS011;25155;41.890;23.446;2024-03-08T07:25:21;12.32;;;9.30;;
39454;SDS011;25155;41.890;23.446;2024-03-08T07:27:50;11.98;;;8.15;;
39454;SDS011;25155;41.890;23.446;2024-03-08T07:30:18;15.73;;;11.60;;
39454;SDS011;25155;41.890;23.446;2024-03-08T07:33:04;19.63;;;14.13;;
39454;SDS011;25155;41.890;23.446;2024-03-08T07:35:32;15.50;;;11.77;;
39454;SDS011;25155;41.890;23.446;2024-03-08T07:38:02;14.85;;;11.07;;
39454;SDS011;25155;41.890;23.446;2024-03-08T07:40:30;11.68;;;8.05;;
39454;SDS011;25155;41.890;23.446;2024-03-08T07:42:59;11.23;;;7.38;;
39454;SDS011;25155;41.890;23.446;2024-03-08T07:45:27;8.60;;;6.32;;
39454;SDS011;25155;41.890;23.446;2024-03-08T07:47:56;8.75;;;5.35;;
39454;SDS011;25155;41.890;23.446;2024-03-08T07:50:23;6.63;;;4.72;;
39454;SDS011;25155;41.890;23.446;2024-03-08T07:52:50;7.20;;;4.68;;
39454;SDS011;25155;41.890;23.446;2024-03-08T07:55:17;5.47;;;3.45;;
39454;SDS011;25155;41.890;23.446;2024-03-08T07:57:45;5.93;;;3.90;;
39454;SDS011;25155;41.890;23.446;2024-03-08T08:00:15;5.55;;;3.85;;
39454;SDS011;25155;41.890;23.446;2024-03-08T08:02:44;5.13;;;3.20;;
39454;SDS011;25155;41.890;23.446;2024-03-08T08:05:11;6.05;;;3.83;;
39454;SDS011;25155;41.890;23.446;2024-03-08T08:07:39;5.50;;;3.53;;
39454;SDS011;25155;41.890;23.446;2024-03-08T08:10:09;8.77;;;4.70;;
39454;SDS011;25155;41.890;23.446;2024-03-08T08:12:42;4.95;;;3.10;;
39454;SDS011;25155;41.890;23.446;2024-03-08T08:15:09;4.40;;;3.00;;
39454;SDS011;25155;41.890;23.446;2024-03-08T08:17:38;6.15;;;3.63;;
39454;SDS011;25155;41.890;23.446;2024-03-08T08:20:05;4.47;;;2.83;;
39454;SDS011;25155;41.890;23.446;2024-03-08T08:22:33;5.82;;;3.22;;
39454;SDS011;25155;41.890;23.446;2024-03-08T08:25:00;5.57;;;3.45;;
39454;SDS011;25155;41.890;23.446;2024-03-08T08:27:27;4.88;;;2.90;;
39454;SDS011;25155;41.890;23.446;2024-03-08T08:29:54;5.05;;;3.10;;
39454;SDS011;25155;41.890;23.446;2024-03-08T08:32:22;4.47;;;2.63;;
39454;SDS011;25155;41.890;23.446;2024-03-08T08:34:50;4.30;;;2.90;;
39454;SDS011;25155;41.890;23.446;2024-03-08T08:37:17;4.25;;;2.83;;
39454;SDS011;25155;41.890;23.446;2024-03-08T08:39:44;4.57;;;2.92;;
39454;SDS011;25155;41.890;23.446;2024-03-08T08:42:12;4.47;;;3.05;;
39454;SDS011;25155;41.890;23.446;2024-03-08T08:44:40;5.47;;;3.10;;
39454;SDS011;25155;41.890;23.446;2024-03-08T08:47:07;5.50;;;3.33;;
39454;SDS011;25155;41.890;23.446;2024-03-08T08:49:34;4.70;;;3.40;;
39454;SDS011;25155;41.890;23.446;2024-03-08T08:52:03;6.15;;;3.22;;
39454;SDS011;25155;41.890;23.446;2024-03-08T08:54:30;4.80;;;3.35;;
39454;SDS011;25155;41.890;23.446;2024-03-08T08:56:57;5.57;;;3.28;;
39454;SDS011;25155;41.890;23.446;2024-03-08T08:59:24;4.90;;;3.10;;
39454;SDS011;25155;41.890;23.446;2024-03-08T09:01:52;6.15;;;3.20;;
39454;SDS011;25155;41.890;23.446;2024-03-08T09:04:19;4.57;;;3.10;;
39454;SDS011;25155;41.890;23.446;2024-03-08T09:06:48;3.70;;;2.40;;
39454;SDS011;25155;41.890;23.446;2024-03-08T09:09:16;4.75;;;2.70;;
39454;SDS011;25155;41.890;23.446;2024-03-08T09:11:44;4.25;;;2.60;;
39454;SDS011;25155;41.890;23.446;2024-03-08T09:14:11;3.65;;;2.45;;
39454;SDS011;25155;41.890;23.446;2024-03-08T09:16:39;4.50;;;2.97;;
39454;SDS011;25155;41.890;23.446;2024-03-08T09:19:06;4.55;;;2.60;;
39454;SDS011;25155;41.890;23.446;2024-03-08T09:21:36;4.30;;;2.47;;
39454;SDS011;25155;41.890;23.446;2024-03-08T09:24:05;4.85;;;3.10;;
39454;SDS011;25155;41.890;23.446;2024-03-08T09:26:34;5.00;;;2.78;;
39454;SDS011;25155;41.890;23.446;2024-03-08T09:29:01;4.30;;;2.90;;
39454;SDS011;25155;41.890;23.446;2024-03-08T09:31:28;5.03;;;2.95;;
39454;SDS011;25155;41.890;23.446;2024-03-08T09:33:55;3.92;;;2.30;;
39454;SDS011;25155;41.890;23.446;2024-03-08T09:36:22;3.80;;;2.20;;
39454;SDS011;25155;41.890;23.446;2024-03-08T09:38:50;3.17;;;2.13;;
39454;SDS011;25155;41.890;23.446;2024-03-08T09:41:18;4.47;;;2.80;;
39454;SDS011;25155;41.890;23.446;2024-03-08T09:43:46;4.28;;;2.88;;
39454;SDS011;25155;41.890;23.446;2024-03-08T09:46:14;3.67;;;2.30;;
39454;SDS011;25155;41.890;23.446;2024-03-08T09:48:42;4.63;;;2.33;;
39454;SDS011;25155;41.890;23.446;2024-03-08T09:51:10;4.25;;;2.30;;
39454;SDS011;25155;41.890;23.446;2024-03-08T09:53:40;5.55;;;3.20;;
39454;SDS011;25155;41.890;23.446;2024-03-08T09:56:08;4.43;;;2.92;;
39454;SDS011;25155;41.890;23.446;2024-03-08T09:58:37;4.88;;;3.17;;
39454;SDS011;25155;41.890;23.446;2024-03-08T10:01:21;5.30;;;3.13;;
39454;SDS011;25155;41.890;23.446;2024-03-08T10:03:48;5.03;;;3.30;;
39454;SDS011;25155;41.890;23.446;2024-03-08T10:06:15;5.13;;;3.28;;
39454;SDS011;25155;41.890;23.446;2024-03-08T10:08:43;6.28;;;2.92;;
39454;SDS011;25155;41.890;23.446;2024-03-08T10:11:12;4.47;;;2.92;;
39454;SDS011;25155;41.890;23.446;2024-03-08T10:13:39;4.03;;;2.53;;
39454;SDS011;25155;41.890;23.446;2024-03-08T10:16:06;4.18;;;2.83;;
39454;SDS011;25155;41.890;23.446;2024-03-08T10:18:36;4.47;;;2.75;;
39454;SDS011;25155;41.890;23.446;2024-03-08T10:21:04;4.20;;;2.78;;
39454;SDS011;25155;41.890;23.446;2024-03-08T10:23:33;6.60;;;3.05;;
39454;SDS011;25155;41.890;23.446;2024-03-08T10:26:09;5.00;;;3.05;;
39454;SDS011;25155;41.890;23.446;2024-03-08T10:28:40;4.32;;;2.80;;
39454;SDS011;25155;41.890;23.446;2024-03-08T10:31:08;4.10;;;2.60;;
39454;SDS011;25155;41.890;23.446;2024-03-08T10:33:37;5.32;;;3.13;;
39454;SDS011;25155;41.890;23.446;2024-03-08T10:36:08;5.68;;;3.22;;
39454;SDS011;25155;41.890;23.446;2024-03-08T10:38:36;5.03;;;3.10;;
39454;SDS011;25155;41.890;23.446;2024-03-08T10:41:04;4.53;;;2.70;;
39454;SDS011;25155;41.890;23.446;2024-03-08T10:43:38;4.28;;;2.35;;
39454;SDS011;25155;41.890;23.446;2024-03-08T10:46:24;4.13;;;2.40;;
39454;SDS011;25155;41.890;23.446;2024-03-08T10:48:59;3.95;;;2.40;;
39454;SDS011;25155;41.890;23.446;2024-03-08T10:51:31;3.47;;;1.92;;
39454;SDS011;25155;41.890;23.446;2024-03-08T10:53:59;3.25;;;2.05;;
39454;SDS011;25155;41.890;23.446;2024-03-08T10:56:28;3.88;;;2.20;;
39454;SDS011;25155;41.890;23.446;2024-03-08T10:58:55;3.88;;;2.40;;
39454;SDS011;25155;41.890;23.446;2024-03-08T11:01:23;3.45;;;2.22;;
39454;SDS011;25155;41.890;23.446;2024-03-08T11:03:51;3.33;;;1.70;;
39454;SDS011;25155;41.890;23.446;2024-03-08T11:06:29;4.13;;;2.13;;
39454;SDS011;25155;41.890;23.446;2024-03-08T11:09:08;6.85;;;2.65;;
39454;SDS011;25155;41.890;23.446;2024-03-08T11:11:42;3.78;;;2.40;;
39454;SDS011;25155;41.890;23.446;2024-03-08T11:14:41;4.13;;;2.72;;
39454;SDS011;25155;41.890;23.446;2024-03-08T11:17:14;4.32;;;2.53;;
39454;SDS011;25155;41.890;23.446;2024-03-08T11:19:46;4.13;;;2.80;;
39454;SDS011;25155;41.890;23.446;2024-03-08T11:22:22;3.80;;;2.28;;
39454;SDS011;25155;41.890;23.446;2024-03-08T11:24:53;5.47;;;3.00;;
39454;SDS011;25155;41.890;23.446;2024-03-08T11:27:20;4.20;;;2.55;;
39454;SDS011;25155;41.890;23.446;2024-03-08T11:29:58;4.28;;;2.60;;
39454;SDS011;25155;41.890;23.446;2024-03-08T11:32:35;4.65;;;3.05;;
39454;SDS011;25155;41.890;23.446;2024-03-08T11:35:05;4.60;;;2.80;;
39454;SDS011;25155;41.890;23.446;2024-03-08T11:37:36;3.75;;;2.40;;
39454;SDS011;25155;41.890;23.446;2024-03-08T11:40:11;4.15;;;2.47;;
39454;SDS011;25155;41.890;23.446;2024-03-08T11:42:43;3.70;;;2.40;;
39454;SDS011;25155;41.890;23.446;2024-03-08T11:45:14;3.85;;;2.22;;
39454;SDS011;25155;41.890;23.446;2024-03-08T11:47:43;3.25;;;2.10;;
39454;SDS011;25155;41.890;23.446;2024-03-08T11:50:11;4.15;;;2.38;;
39454;SDS011;25155;41.890;23.446;2024-03-08T11:52:40;4.05;;;2.50;;
39454;SDS011;25155;41.890;23.446;2024-03-08T11:55:08;3.83;;;2.20;;
39454;SDS011;25155;41.890;23.446;2024-03-08T11:57:35;4.00;;;2.40;;
39454;SDS011;25155;41.890;23.446;2024-03-08T12:00:03;2.60;;;1.80;;
39454;SDS011;25155;41.890;23.446;2024-03-08T12:02:32;3.67;;;2.28;;
39454;SDS011;25155;41.890;23.446;2024-03-08T12:05:03;3.55;;;2.20;;
39454;SDS011;25155;41.890;23.446;2024-03-08T12:07:34;2.92;;;2.13;;
39454;SDS011;25155;41.890;23.446;2024-03-08T12:10:16;4.43;;;2.60;;
39454;SDS011;25155;41.890;23.446;2024-03-08T12:12:44;4.30;;;2.33;;
39454;SDS011;25155;41.890;23.446;2024-03-08T12:15:13;3.15;;;2.10;;
39454;SDS011;25155;41.890;23.446;2024-03-08T12:17:43;2.40;;;1.80;;
39454;SDS011;25155;41.890;23.446;2024-03-08T12:20:15;3.58;;;2.20;;
39454;SDS011;25155;41.890;23.446;2024-03-08T12:22:43;3.85;;;2.10;;
39454;SDS011;25155;41.890;23.446;2024-03-08T12:25:11;2.55;;;1.83;;
39454;SDS011;25155;41.890;23.446;2024-03-08T12:27:41;3.00;;;2.00;;
39454;SDS011;25155;41.890;23.446;2024-03-08T12:30:16;3.30;;;1.90;;
39454;SDS011;25155;41.890;23.446;2024-03-08T12:32:47;2.22;;;1.75;;
39454;SDS011;25155;41.890;23.446;2024-03-08T12:35:24;6.05;;;2.30;;
39454;SDS011;25155;41.890;23.446;2024-03-08T12:37:52;3.75;;;2.30;;
39454;SDS011;25155;41.890;23.446;2024-03-08T12:40:25;3.17;;;2.03;;
39454;SDS011;25155;41.890;23.446;2024-03-08T12:42:55;2.95;;;1.90;;
39454;SDS011;25155;41.890;23.446;2024-03-08T12:45:22;3.28;;;1.98;;
39454;SDS011;25155;41.890;23.446;2024-03-08T12:47:50;3.20;;;2.17;;
39454;SDS011;25155;41.890;23.446;2024-03-08T12:50:18;3.10;;;2.00;;
39454;SDS011;25155;41.890;23.446;2024-03-08T12:52:46;4.32;;;2.05;;
39454;SDS011;25155;41.890;23.446;2024-03-08T12:55:14;3.00;;;1.90;;
39454;SDS011;25155;41.890;23.446;2024-03-08T12:57:41;3.58;;;1.80;;
39454;SDS011;25155;41.890;23.446;2024-03-08T13:00:11;5.25;;;1.80;;
39454;SDS011;25155;41.890;23.446;2024-03-08T13:02:44;3.00;;;1.60;;
39454;SDS011;25155;41.890;23.446;2024-03-08T13:05:11;4.53;;;1.83;;
39454;SDS011;25155;41.890;23.446;2024-03-08T13:07:39;2.45;;;1.80;;
39454;SDS011;25155;41.890;23.446;2024-03-08T13:10:11;3.70;;;1.80;;
39454;SDS011;25155;41.890;23.446;2024-03-08T13:12:40;2.22;;;1.60;;
39454;SDS011;25155;41.890;23.446;2024-03-08T13:15:07;3.40;;;1.77;;
39454;SDS011;25155;41.890;23.446;2024-03-08T13:17:38;1.92;;;1.60;;
39454;SDS011;25155;41.890;23.446;2024-03-08T13:20:07;2.67;;;1.73;;
39454;SDS011;25155;41.890;23.446;2024-03-08T13:22:41;2.70;;;1.50;;
39454;SDS011;25155;41.890;23.446;2024-03-08T13:25:09;3.40;;;2.00;;
39454;SDS011;25155;41.890;23.446;2024-03-08T13:27:38;3.25;;;1.60;;
39454;SDS011;25155;41.890;23.446;2024-03-08T13:30:07;2.15;;;1.50;;
39454;SDS011;25155;41.890;23.446;2024-03-08T13:32:39;2.78;;;1.60;;
39454;SDS011;25155;41.890;23.446;2024-03-08T13:35:08;2.67;;;1.75;;
39454;SDS011;25155;41.890;23.446;2024-03-08T13:37:38;2.47;;;1.70;;
39454;SDS011;25155;41.890;23.446;2024-03-08T13:40:06;2.50;;;1.50;;
39454;SDS011;25155;41.890;23.446;2024-03-08T13:42:39;2.85;;;1.50;;
39454;SDS011;25155;41.890;23.446;2024-03-08T13:45:07;1.58;;;1.35;;
39454;SDS011;25155;41.890;23.446;2024-03-08T13:47:37;2.22;;;1.58;;
39454;SDS011;25155;41.890;23.446;2024-03-08T13:50:07;1.77;;;1.50;;
39454;SDS011;25155;41.890;23.446;2024-03-08T13:52:37;2.20;;;1.50;;
39454;SDS011;25155;41.890;23.446;2024-03-08T13:55:05;2.28;;;1.60;;
39454;SDS011;25155;41.890;23.446;2024-03-08T13:57:32;1.92;;;1.40;;
39454;SDS011;25155;41.890;23.446;2024-03-08T13:59:59;2.60;;;1.80;;
39454;SDS011;25155;41.890;23.446;2024-03-08T14:02:27;2.40;;;1.85;;
39454;SDS011;25155;41.890;23.446;2024-03-08T14:04:56;2.65;;;1.80;;
39454;SDS011;25155;41.890;23.446;2024-03-08T14:07:26;2.47;;;1.80;;
39454;SDS011;25155;41.890;23.446;2024-03-08T14:09:54;4.00;;;2.10;;
39454;SDS011;25155;41.890;23.446;2024-03-08T14:12:21;3.55;;;2.10;;
39454;SDS011;25155;41.890;23.446;2024-03-08T14:14:51;2.85;;;1.90;;
39454;SDS011;25155;41.890;23.446;2024-03-08T14:17:18;3.55;;;2.10;;
39454;SDS011;25155;41.890;23.446;2024-03-08T14:19:46;4.60;;;1.80;;
39454;SDS011;25155;41.890;23.446;2024-03-08T14:22:13;3.47;;;2.10;;
39454;SDS011;25155;41.890;23.446;2024-03-08T14:24:42;2.90;;;2.03;;
39454;SDS011;25155;41.890;23.446;2024-03-08T14:27:10;2.72;;;1.67;;
39454;SDS011;25155;41.890;23.446;2024-03-08T14:29:37;3.35;;;2.00;;
39454;SDS011;25155;41.890;23.446;2024-03-08T14:32:04;2.85;;;1.80;;
39454;SDS011;25155;41.890;23.446;2024-03-08T14:34:33;6.53;;;2.10;;
39454;SDS011;25155;41.890;23.446;2024-03-08T14:37:00;3.42;;;2.00;;
39454;SDS011;25155;41.890;23.446;2024-03-08T14:39:30;3.95;;;2.00;;